Rogers Spring, Nevada Weather observations

Data are for 10 minute period ending at time listed.
 Day   Time   Solar   Ave.   Ave.  Ave.  Vector  Max.   Baro.   Total    
  of    of     Rad.   Air    Rel.  Wind   Wind   Wind  Press.  Precip.   
Year   Day            Temp.  Hum.  Speed  Dir.   Gust                    
2015   (PST)  Kw/m2    F      %     mph   deg.    mph    mb.     in.     
-------------------------------------------------------------------------
 211   15:50   0.52  103.3    15    4.4   243     7.2   933.2    0.00 
 211   16:00   0.60  102.8    15    6.0   265    10.9   933.2    0.00 
 211   16:10   0.44  103.5    14    8.9   307    14.3   933.2    0.00 
 211   16:20   0.18  100.9    15    6.5   315    13.6   933.3    0.00 
 211   16:30   0.16   99.8    16    4.2   284     8.6   933.2    0.00 
 211   16:40   0.16   99.6    15    6.3   292     9.8   933.2    0.00 
 211   16:50   0.15   99.6    15    6.0   284     9.6   933.1    0.00 
 211   17:00   0.14   99.0    15    5.3   285     8.6   932.9    0.00 
 211   17:10   0.12   98.5    16    5.3   276     8.9   932.9    0.00 
 211   17:20   0.10   98.1    15    5.0   280     8.1   932.7    0.00 
 211   17:30   0.08   97.7    16    4.8   279     7.2   932.6    0.00 
 211   17:40   0.08   97.2    16    4.8   273     8.3   932.6    0.00 
 211   17:50   0.07   97.0    16    5.5   275     9.3   932.6    0.00 
 211   18:00   0.07   96.8    16    5.2   278    15.7   932.5    0.00 
 211   18:10   0.06   97.8    14    9.6   300    15.5   932.6    0.00 
 211   18:20   0.06   97.6    14    9.7   299    15.4   932.6    0.00 
 211   18:30   0.04   97.1    14    7.2   302    13.2   932.7    0.00 
 211   18:40   0.02   96.6    15    8.6   302    14.0   932.6    0.00 
 211   18:50   0.01   96.0    15    7.6   296    12.4   932.5    0.00 
 211   19:00   0.01   95.1    16    6.0   288     9.4   932.5    0.00 
 211   19:10   0.00   94.5    16    5.9   282     9.4   932.6    0.00 
 211   19:20   0.00   93.7    17    4.8   272     8.8   932.6    0.00 
 211   19:30   0.00   92.2    18    4.7   272     8.5   932.8    0.00 
 211   19:40   0.00   91.7    18    4.1   275     7.8   932.7    0.00 
 211   19:50   0.00   91.0    18    3.8   282     7.1   932.7    0.00 
 211   20:00   0.00   90.6    19    3.5   282     5.8   932.8    0.00 
 211   20:10   0.00   90.0    19    2.3   276     5.3   932.8    0.00 
 211   20:20   0.00   88.9    20    1.2   247     2.5   933.1    0.00 
 211   20:30   0.00   87.2    21    3.2   168     6.4   933.5    0.00 
 211   20:40   0.00   90.2    22    8.1   162    18.6   934.2    0.00 
 211   20:50   0.00   92.6    24    8.7   145    17.0   934.7    0.00 
 211   21:00   0.00   89.5    30    6.6   182    11.8   934.9    0.00 
 211   21:10   0.00   89.2    29    6.7   179    13.4   935.0    0.00 
 211   21:20   0.00   89.2    28    8.0   174    14.3   935.0    0.00 
 211   21:30   0.00   89.0    28    8.1   171    15.6   934.9    0.00 
 211   21:40   0.00   88.9    28    6.4   176    14.4   934.9    0.00 
 211   21:50   0.00   88.6    29    6.1   185    13.1   934.7    0.00 
 211   22:00   0.00   88.7    29    7.6   173    14.2   934.4    0.00 
 211   22:10   0.00   88.2    31    7.4   155    15.1   934.8    0.00 
 211   22:20   0.00   87.6    32    5.4   165    12.0   934.8    0.00 
 211   22:30   0.00   87.3    33    4.4   168     9.4   935.1    0.00 
 211   22:40   0.00   86.9    32    3.4   149     6.5   935.3    0.00 
 211   22:50   0.00   86.8    32    4.6   158     9.1   935.4    0.00 
 211   23:00   0.00   87.0    31    5.1   153     9.6   935.4    0.00 
 211   23:10   0.00   86.6    31    4.5   160     9.8   935.3    0.00 
 211   23:20   0.00   86.2    31    5.1   156    10.4   935.3    0.00 
 211   23:30   0.00   86.1    32    4.8   150     8.8   935.1    0.00 
 211   23:40   0.00   86.5    31    5.4   152     9.9   935.2    0.00 
 211   23:50   0.00   87.1    30    4.4   166     9.6   935.1    0.00 
 212    0:00   0.00   85.0    33    2.7   213     5.9   935.2    0.00 
 212    0:10   0.00   83.5    35    1.6   172     3.2   935.3    0.00 
 212    0:20   0.00   82.9    36    1.6   208     3.1   935.4    0.00 
 212    0:30   0.00   81.2    39    0.9   209     2.0   935.5    0.00 
 212    0:40   0.00   79.6    43    1.1    19     2.0   935.4    0.00 
 212    0:50   0.00   78.9    44    2.3    58     2.9   935.4    0.00 
 212    1:00   0.00   79.2    43    2.4    63     3.5   935.3    0.00 
 212    1:10   0.00   78.8    44    1.7    25     3.4   935.1    0.00 
 212    1:20   0.00   77.8    45    1.0    36     1.5   935.0    0.00 
 212    1:30   0.00   78.3    45    0.7    35     1.5   934.9    0.00 
 212    1:40   0.00   77.8    45    2.1    78     3.8   934.8    0.00 
 212    1:50   0.00   79.5    42    2.7    85     3.4   934.7    0.00 
 212    2:00   0.00   80.2    41    1.9    48     2.9   934.5    0.00 
 212    2:10   0.00   77.6    46    2.1    53     3.5   934.5    0.00 
 212    2:20   0.00   78.2    44    2.8    64     4.0   934.5    0.00 
 212    2:30   0.00   79.2    41    2.2    77     3.7   934.6    0.00 
 212    2:40   0.00   79.2    42    2.8    63     4.2   934.7    0.00 
 212    2:50   0.00   79.6    41    2.0    86     4.3   934.5    0.00 
 212    3:00   0.00   80.9    38    2.3    76     4.1   934.5    0.00 
 212    3:10   0.00   80.3    40    1.5    53     2.4   934.5    0.00 
 212    3:20   0.00   80.3    40    0.9    55     2.0   934.5    0.00 
 212    3:30   0.00   78.8    42    0.7   185     1.9   934.5    0.00 
 212    3:40   0.00   76.6    46    1.3   152     2.3   934.5    0.00 
 212    3:50   0.00   76.3    46    1.6   161     2.1   934.5    0.00 
 212    4:00   0.00   76.0    46    1.8   155     2.5   934.6    0.00 
 212    4:10   0.00   75.7    46    1.8   189     2.9   934.7    0.00 
 212    4:20   0.00   75.9    46    2.0   164     3.1   934.8    0.00 
 212    4:30   0.00   75.7    46    1.9   179     2.7   934.9    0.00 
 212    4:40   0.00   75.9    47    1.6   184     2.1   934.9    0.00 
 212    4:50   0.00   75.5    47    1.7   204     2.7   935.0    0.00 
 212    5:00   0.00   75.5    48    1.3   186     1.8   935.1    0.00 
 212    5:10   0.01   74.9    49    1.5   158     2.3   935.1    0.00 
 212    5:20   0.01   75.6    48    1.7   147     2.3   935.2    0.00 
 212    5:30   0.02   74.9    50    1.6   140     2.6   935.3    0.00 
 212    5:40   0.03   74.8    52    1.5   153     2.3   935.4    0.00 
 212    5:50   0.04   75.3    51    1.9   162     2.5   935.6    0.00 
 212    6:00   0.04   76.1    50    2.1   164     3.4   935.8    0.00 
 212    6:10   0.05   77.3    48    2.2   163     3.2   935.9    0.00 
 212    6:20   0.07   78.6    45    2.6   163     4.2   936.0    0.00 
 212    6:30   0.08   80.2    43    2.2   166     4.2   936.0    0.00 
 212    6:40   0.11   81.5    42    1.5   172     2.6   936.0    0.00 
 212    6:50   0.09   83.0    40    0.8   192     2.2   936.0    0.00 
 212    7:00   0.21   85.2    37    1.5   182     5.3   936.1    0.00 
 212    7:10   0.16   86.6    35    2.7   176     4.8   936.1    0.00 
 212    7:20   0.18   86.9    35    2.5   197     4.9   936.0    0.00 
 212    7:30   0.24   86.8    35    2.3   206     4.5   935.9    0.00 
 212    7:40   0.44   88.5    33    2.3   213     4.6   935.9    0.00 
 212    7:50   0.45   92.0    28    3.4   186     6.4   935.7    0.00 
 212    8:00   0.40   94.0    26    2.8   180     6.5   935.7    0.00 
 212    8:10   0.48   93.8    26    4.6   185     8.4   935.8    0.00 
 212    8:20   0.26   92.0    27    4.9   199     8.6   935.8    0.00 
 212    8:30   0.28   91.3    30    4.2   223     6.4   935.8    0.00 
 212    8:40   0.28   91.6    29    4.4   210     8.0   935.8    0.00 
 212    8:50   0.28   92.5    27    2.7   178     7.0   935.7    0.00 
 212    9:00   0.45   94.0    26    2.3   164     5.3   935.7    0.00 
 212    9:10   0.55   95.0    25    2.2   182     6.9   935.7    0.00 
 212    9:20   0.40   94.4    25    3.2   151     7.7   935.9    0.00 
 212    9:30   0.29   93.4    26    4.5   197    10.4   936.0    0.00 
 212    9:40   0.25   92.0    28    4.4   182     8.5   936.0    0.00 
 212    9:50   0.24   91.7    28    5.8   168    12.6   936.0    0.00 
 212   10:00   0.21   90.5    28    7.3   153    13.4   936.1    0.00 
 212   10:10   0.27   90.4    28    6.9   154    12.2   936.0    0.00 
 212   10:20   0.32   90.7    28    8.2   155    14.5   936.0    0.00 
 212   10:30   0.35   91.7    27    7.2   159    12.3   936.0    0.00 
 212   10:40   0.28   92.1    26    5.7   149    12.5   936.0    0.00 
 212   10:50   0.33   92.7    26    6.7   155    12.6   935.9    0.00 
 212   11:00   0.43   93.5    25    6.6   157    12.0   935.9    0.00 
 212   11:10   0.63   95.4    23    5.3   160     9.9   935.9    0.00 
 212   11:20   0.64   98.1    20    4.3   137    10.2   936.0    0.00 
 212   11:30   0.57   96.3    21    5.1    95    10.5   936.1    0.00 
 212   11:40   0.63   97.3    20    6.8    89    18.2   936.2    0.00 
 212   11:50   0.40   96.1    21    7.2    87    13.8   936.3    0.00 
 212   12:00   0.77   97.7    20    7.8    88    16.8   936.3    0.00 
 212   12:10   0.65   97.2    20    7.7    77    18.0   936.2    0.00 
 212   12:20   0.50   96.1    21    6.4    71    12.3   936.1    0.00 
 212   12:30   0.85   97.6    20    7.7    74    13.8   935.8    0.00 
 212   12:40   0.90   99.0    18    7.9    83    15.0   935.6    0.00 
 212   12:50   0.87   98.8    18    6.6    87    12.3   935.5    0.00 
 212   13:00   0.86   98.7    19    5.5    86    10.2   935.3    0.00 
 212   13:10   0.84   98.5    19    5.3    72     9.6   935.3    0.00 
 212   13:20   0.75   98.3    19    5.5    67    14.2   935.2    0.00 
 212   13:30   0.88   98.5    20    5.5    62    12.1   935.1    0.00 
 212   13:40   0.78   99.0    20    6.4    56    12.6   935.0    0.00 
 212   13:50   0.84   98.4    20    7.9    51    14.1   934.8    0.00 
 212   14:00   0.75   99.1    20    7.4    44    14.0   934.5    0.00 
 212   14:10   0.73   99.2    19    7.3    46    12.7   934.3    0.00 
 212   14:20   0.60   98.9    19    5.1    44    10.4   934.1    0.00 
 212   14:30   0.71  100.0    19    3.7    86     8.6   933.9    0.00 
 212   14:40   0.67  100.2    17    3.0    63     8.6   933.7    0.00 
 212   14:50   0.67   99.6    18    2.3   307     6.8   933.5    0.00 
 212   15:00   0.66  100.4    18    4.7    62    12.9   933.4    0.00 
 212   15:10   0.62  101.0    17    1.9   162     6.5   933.3    0.00 
 212   15:20   0.61  100.5    18    4.1    35     7.7   933.2    0.00 
 212   15:30   0.56  100.2    18    3.6    20     9.9   933.0    0.00 
 212   15:40   0.56  100.3    18    4.7    16    10.8   932.9    0.00 

Return to Rogers Spring graphs page.


Western Regional Climate Center,wrcc@dri.edu